CFE67W EGLC-EHAM
Flight info
| Callsign | CFE67W |
|---|---|
| Flight time | 0h 41m |
| Altitude | 21000 |
| Route | ODUKU M84 CLN P44 RATLO M197 REDFA |
| Aircraft | E190/M-SDE3GILORVW/S |
Departure
| Time | 2026-04-29 16:07 |
|---|---|
| Airport | London City Airport (EGLC) |
Arrival
| Time | 2026-04-29 16:49 |
|---|---|
| Airport | Amsterdam Airport Schiphol (EHAM) |
| Time | Latitude | Longitude | Altitude | Speed | Heading |
|---|---|---|---|---|---|
| 2026-04-29 15:45 | 51.50437 | 0.04817 | 29 ft | 0 kts | 308° |
| 2026-04-29 16:03 | 51.50437 | 0.04815 | 56 ft | 1 kts | 310° |
| 2026-04-29 16:03 | 51.50444 | 0.04806 | 28 ft | 2 kts | 319° |
| 2026-04-29 16:03 | 51.50462 | 0.04776 | 28 ft | 5 kts | 303° |
| 2026-04-29 16:04 | 51.50470 | 0.04720 | 28 ft | 6 kts | 276° |
| 2026-04-29 16:04 | 51.50473 | 0.04647 | 28 ft | 7 kts | 274° |
| 2026-04-29 16:04 | 51.50476 | 0.04556 | 28 ft | 9 kts | 272° |
| 2026-04-29 16:04 | 51.50492 | 0.04454 | 28 ft | 7 kts | 315° |
| 2026-04-29 16:05 | 51.50494 | 0.04451 | 28 ft | 0 kts | 322° |
| 2026-04-29 16:05 | 51.50519 | 0.04438 | 28 ft | 8 kts | 349° |
| 2026-04-29 16:05 | 51.50557 | 0.04491 | 28 ft | 8 kts | 93° |
| 2026-04-29 16:05 | 51.50556 | 0.04498 | 28 ft | 0 kts | 93° |
| 2026-04-29 16:06 | 51.50556 | 0.04507 | 28 ft | 5 kts | 93° |
| 2026-04-29 16:06 | 51.50542 | 0.04950 | 28 ft | 78 kts | 92° |
| 2026-04-29 16:07 | 51.50506 | 0.06199 | 52 ft | 141 kts | 91° |
| 2026-04-29 16:07 | 51.50476 | 0.07304 | 424 ft | 155 kts | 87° |
| 2026-04-29 16:07 | 51.50415 | 0.09736 | 1617 ft | 167 kts | 88° |
| 2026-04-29 16:07 | 51.50438 | 0.11639 | 2272 ft | 174 kts | 78° |
| 2026-04-29 16:08 | 51.51119 | 0.13288 | 2398 ft | 197 kts | 39° |
| 2026-04-29 16:08 | 51.52443 | 0.14067 | 2556 ft | 204 kts | 28° |
| 2026-04-29 16:08 | 51.53703 | 0.15126 | 2786 ft | 208 kts | 34° |
| 2026-04-29 16:08 | 51.55103 | 0.16098 | 2936 ft | 224 kts | 33° |
| 2026-04-29 16:09 | 51.56310 | 0.17522 | 3033 ft | 207 kts | 57° |
| 2026-04-29 16:09 | 51.57015 | 0.19557 | 3511 ft | 224 kts | 70° |
| 2026-04-29 16:09 | 51.57634 | 0.21971 | 4341 ft | 235 kts | 71° |
| 2026-04-29 16:09 | 51.58240 | 0.24448 | 5392 ft | 239 kts | 72° |
| 2026-04-29 16:10 | 51.58822 | 0.26966 | 6413 ft | 243 kts | 73° |
| 2026-04-29 16:10 | 51.59451 | 0.29533 | 7319 ft | 248 kts | 69° |
| 2026-04-29 16:10 | 51.60204 | 0.32083 | 8140 ft | 255 kts | 68° |
| 2026-04-29 16:10 | 51.60991 | 0.34672 | 8993 ft | 260 kts | 68° |
| 2026-04-29 16:11 | 51.61794 | 0.37305 | 9841 ft | 267 kts | 68° |
| 2026-04-29 16:11 | 51.62617 | 0.40018 | 10434 ft | 283 kts | 67° |
| 2026-04-29 16:11 | 51.63507 | 0.42968 | 10964 ft | 294 kts | 68° |
| 2026-04-29 16:11 | 51.64424 | 0.46000 | 11280 ft | 303 kts | 67° |
| 2026-04-29 16:12 | 51.65347 | 0.49053 | 11297 ft | 302 kts | 67° |
| 2026-04-29 16:12 | 51.65953 | 0.51057 | 11302 ft | 300 kts | 68° |
| 2026-04-29 16:12 | 51.67174 | 0.55097 | 11779 ft | 301 kts | 68° |
| 2026-04-29 16:12 | 51.68081 | 0.58117 | 12674 ft | 305 kts | 67° |
| 2026-04-29 16:13 | 51.69011 | 0.61206 | 13619 ft | 310 kts | 68° |
| 2026-04-29 16:13 | 51.69957 | 0.64364 | 14454 ft | 317 kts | 68° |
| 2026-04-29 16:13 | 51.70915 | 0.67558 | 15460 ft | 317 kts | 68° |
| 2026-04-29 16:13 | 51.71876 | 0.70769 | 16401 ft | 320 kts | 68° |
| 2026-04-29 16:14 | 51.72851 | 0.74038 | 17252 ft | 323 kts | 68° |
| 2026-04-29 16:14 | 51.73833 | 0.77325 | 18208 ft | 326 kts | 67° |
| 2026-04-29 16:14 | 51.74824 | 0.80668 | 18897 ft | 333 kts | 67° |
| 2026-04-29 16:14 | 51.75827 | 0.84056 | 19644 ft | 337 kts | 67° |
| 2026-04-29 16:15 | 51.76840 | 0.87480 | 20358 ft | 342 kts | 68° |
| 2026-04-29 16:15 | 51.77872 | 0.90975 | 21035 ft | 346 kts | 68° |
| 2026-04-29 16:15 | 51.78922 | 0.94540 | 21275 ft | 359 kts | 68° |
| 2026-04-29 16:15 | 51.80017 | 0.98270 | 21315 ft | 376 kts | 66° |
| 2026-04-29 16:16 | 51.81147 | 1.02109 | 21328 ft | 377 kts | 67° |
| 2026-04-29 16:16 | 51.81892 | 1.04641 | 21333 ft | 380 kts | 67° |
| 2026-04-29 16:16 | 51.83029 | 1.08513 | 21338 ft | 383 kts | 67° |
| 2026-04-29 16:16 | 51.84167 | 1.12392 | 21318 ft | 379 kts | 66° |
| 2026-04-29 16:17 | 51.85259 | 1.16315 | 21302 ft | 387 kts | 69° |
| 2026-04-29 16:17 | 51.86326 | 1.20274 | 21296 ft | 382 kts | 68° |
| 2026-04-29 16:17 | 51.87396 | 1.24213 | 21294 ft | 383 kts | 68° |
| 2026-04-29 16:17 | 51.88473 | 1.28185 | 21296 ft | 384 kts | 69° |
| 2026-04-29 16:18 | 51.89538 | 1.32132 | 21298 ft | 384 kts | 69° |
| 2026-04-29 16:18 | 51.90606 | 1.36117 | 21306 ft | 386 kts | 68° |
| 2026-04-29 16:18 | 51.91667 | 1.40082 | 21301 ft | 382 kts | 68° |
| 2026-04-29 16:18 | 51.92731 | 1.44068 | 21306 ft | 387 kts | 69° |
| 2026-04-29 16:19 | 51.93791 | 1.48039 | 21303 ft | 382 kts | 69° |
| 2026-04-29 16:19 | 51.94846 | 1.52013 | 21303 ft | 387 kts | 68° |
| 2026-04-29 16:19 | 51.95909 | 1.56020 | 21307 ft | 384 kts | 69° |
| 2026-04-29 16:19 | 51.96960 | 1.59986 | 21302 ft | 384 kts | 68° |
| 2026-04-29 16:20 | 51.98018 | 1.63988 | 21302 ft | 386 kts | 69° |
| 2026-04-29 16:20 | 51.99042 | 1.67975 | 21309 ft | 383 kts | 73° |
| 2026-04-29 16:20 | 51.99787 | 1.72086 | 21316 ft | 385 kts | 77° |
| 2026-04-29 16:20 | 52.00431 | 1.76269 | 21310 ft | 380 kts | 77° |
| 2026-04-29 16:21 | 52.00810 | 1.78776 | 21311 ft | 381 kts | 77° |
| 2026-04-29 16:21 | 52.01383 | 1.82563 | 21316 ft | 385 kts | 77° |
| 2026-04-29 16:21 | 52.02021 | 1.86744 | 21311 ft | 378 kts | 77° |
| 2026-04-29 16:21 | 52.02661 | 1.90918 | 21313 ft | 384 kts | 77° |
| 2026-04-29 16:22 | 52.03310 | 1.95133 | 21309 ft | 383 kts | 77° |
| 2026-04-29 16:22 | 52.03956 | 1.99307 | 21309 ft | 382 kts | 77° |
| 2026-04-29 16:22 | 52.04603 | 2.03500 | 21309 ft | 382 kts | 77° |
| 2026-04-29 16:22 | 52.05241 | 2.07685 | 21308 ft | 380 kts | 77° |
| 2026-04-29 16:23 | 52.05880 | 2.11881 | 21310 ft | 384 kts | 77° |
| 2026-04-29 16:23 | 52.06520 | 2.16089 | 21308 ft | 381 kts | 77° |
| 2026-04-29 16:23 | 52.07154 | 2.20264 | 21308 ft | 382 kts | 77° |
| 2026-04-29 16:23 | 52.07791 | 2.24466 | 21315 ft | 382 kts | 77° |
| 2026-04-29 16:24 | 52.08423 | 2.28647 | 21314 ft | 381 kts | 77° |
| 2026-04-29 16:24 | 52.09056 | 2.32854 | 21317 ft | 383 kts | 77° |
| 2026-04-29 16:24 | 52.09687 | 2.37048 | 21313 ft | 381 kts | 77° |
| 2026-04-29 16:24 | 52.10308 | 2.41183 | 21313 ft | 382 kts | 77° |
| 2026-04-29 16:25 | 52.10937 | 2.45394 | 21315 ft | 382 kts | 77° |
| 2026-04-29 16:25 | 52.11733 | 2.49502 | 21308 ft | 383 kts | 65° |
| 2026-04-29 16:25 | 52.13018 | 2.53311 | 21319 ft | 385 kts | 61° |
| 2026-04-29 16:25 | 52.14392 | 2.57036 | 21317 ft | 383 kts | 60° |
| 2026-04-29 16:26 | 52.15769 | 2.60777 | 21314 ft | 385 kts | 61° |
| 2026-04-29 16:26 | 52.17135 | 2.64522 | 21318 ft | 384 kts | 61° |
| 2026-04-29 16:26 | 52.18495 | 2.68276 | 21317 ft | 384 kts | 61° |
| 2026-04-29 16:26 | 52.19851 | 2.72028 | 21318 ft | 384 kts | 61° |
| 2026-04-29 16:27 | 52.21207 | 2.75789 | 21318 ft | 384 kts | 61° |
| 2026-04-29 16:27 | 52.22561 | 2.79549 | 21315 ft | 384 kts | 61° |
| 2026-04-29 16:27 | 52.23911 | 2.83305 | 21315 ft | 384 kts | 62° |
| 2026-04-29 16:27 | 52.25262 | 2.87068 | 21323 ft | 384 kts | 62° |
| 2026-04-29 16:28 | 52.26599 | 2.90800 | 21326 ft | 384 kts | 62° |
| 2026-04-29 16:28 | 52.27949 | 2.94575 | 21327 ft | 385 kts | 62° |
| 2026-04-29 16:28 | 52.29298 | 2.98350 | 21324 ft | 378 kts | 61° |
| 2026-04-29 16:28 | 52.30591 | 3.01966 | 21302 ft | 360 kts | 62° |
| 2026-04-29 16:29 | 52.31833 | 3.05453 | 21293 ft | 352 kts | 62° |
| 2026-04-29 16:29 | 52.33060 | 3.08905 | 21305 ft | 351 kts | 62° |
| 2026-04-29 16:29 | 52.34287 | 3.12360 | 21329 ft | 351 kts | 62° |
| 2026-04-29 16:29 | 52.35511 | 3.15818 | 21334 ft | 351 kts | 62° |
| 2026-04-29 16:30 | 52.36739 | 3.19280 | 21017 ft | 348 kts | 62° |
| 2026-04-29 16:30 | 52.37944 | 3.22687 | 20360 ft | 345 kts | 62° |
| 2026-04-29 16:30 | 52.39138 | 3.26067 | 19722 ft | 341 kts | 61° |
| 2026-04-29 16:30 | 52.40306 | 3.29375 | 19114 ft | 338 kts | 61° |
| 2026-04-29 16:31 | 52.41491 | 3.32735 | 18472 ft | 335 kts | 61° |
| 2026-04-29 16:31 | 52.42634 | 3.35974 | 17810 ft | 331 kts | 61° |
| 2026-04-29 16:31 | 52.43778 | 3.39229 | 17160 ft | 327 kts | 61° |
| 2026-04-29 16:31 | 52.44844 | 3.42548 | 16196 ft | 331 kts | 69° |
| 2026-04-29 16:32 | 52.45521 | 3.46182 | 15209 ft | 337 kts | 76° |
| 2026-04-29 16:32 | 52.46005 | 3.49880 | 14665 ft | 321 kts | 77° |
| 2026-04-29 16:32 | 52.46456 | 3.53344 | 14253 ft | 302 kts | 77° |
| 2026-04-29 16:32 | 52.46903 | 3.56616 | 13799 ft | 287 kts | 76° |
| 2026-04-29 16:33 | 52.47782 | 3.62878 | 12822 ft | 273 kts | 76° |
| 2026-04-29 16:33 | 52.48210 | 3.65903 | 12444 ft | 272 kts | 76° |
| 2026-04-29 16:33 | 52.48638 | 3.68924 | 12084 ft | 272 kts | 76° |
| 2026-04-29 16:34 | 52.49065 | 3.71948 | 11732 ft | 272 kts | 76° |
| 2026-04-29 16:34 | 52.49498 | 3.74971 | 11375 ft | 272 kts | 76° |
| 2026-04-29 16:34 | 52.49921 | 3.77995 | 11004 ft | 271 kts | 77° |
| 2026-04-29 16:34 | 52.50342 | 3.81008 | 10636 ft | 269 kts | 77° |
| 2026-04-29 16:35 | 52.50762 | 3.83996 | 10279 ft | 268 kts | 77° |
| 2026-04-29 16:35 | 52.51175 | 3.86959 | 9922 ft | 265 kts | 77° |
| 2026-04-29 16:35 | 52.51585 | 3.89887 | 9590 ft | 262 kts | 77° |
| 2026-04-29 16:35 | 52.51991 | 3.92808 | 9277 ft | 261 kts | 77° |
| 2026-04-29 16:36 | 52.52096 | 3.95756 | 8941 ft | 262 kts | 99° |
| 2026-04-29 16:36 | 52.51297 | 3.98428 | 8704 ft | 266 kts | 128° |
| 2026-04-29 16:36 | 52.49810 | 4.00228 | 8445 ft | 273 kts | 147° |
| 2026-04-29 16:36 | 52.48133 | 4.01707 | 8167 ft | 273 kts | 147° |
| 2026-04-29 16:37 | 52.46466 | 4.03192 | 7898 ft | 271 kts | 147° |
| 2026-04-29 16:37 | 52.44811 | 4.04660 | 7652 ft | 269 kts | 147° |
| 2026-04-29 16:37 | 52.43170 | 4.06108 | 7389 ft | 266 kts | 147° |
| 2026-04-29 16:37 | 52.42094 | 4.07057 | 7239 ft | 264 kts | 147° |
| 2026-04-29 16:38 | 52.39950 | 4.08942 | 6789 ft | 259 kts | 147° |
| 2026-04-29 16:38 | 52.38373 | 4.10318 | 6448 ft | 254 kts | 147° |
| 2026-04-29 16:38 | 52.36839 | 4.11647 | 6207 ft | 246 kts | 147° |
| 2026-04-29 16:38 | 52.35355 | 4.12935 | 5925 ft | 242 kts | 147° |
| 2026-04-29 16:39 | 52.33879 | 4.14209 | 5637 ft | 238 kts | 147° |
| 2026-04-29 16:39 | 52.32425 | 4.15462 | 5341 ft | 234 kts | 147° |
| 2026-04-29 16:39 | 52.31001 | 4.16686 | 5073 ft | 229 kts | 147° |
| 2026-04-29 16:39 | 52.29602 | 4.17895 | 4789 ft | 224 kts | 144° |
| 2026-04-29 16:40 | 52.28427 | 4.19470 | 4512 ft | 216 kts | 131° |
| 2026-04-29 16:40 | 52.27348 | 4.21162 | 4241 ft | 214 kts | 132° |
| 2026-04-29 16:40 | 52.26273 | 4.22823 | 3976 ft | 212 kts | 132° |
| 2026-04-29 16:40 | 52.25200 | 4.24468 | 3721 ft | 211 kts | 132° |
| 2026-04-29 16:41 | 52.24157 | 4.26141 | 3457 ft | 209 kts | 124° |
| 2026-04-29 16:41 | 52.23395 | 4.28134 | 3205 ft | 209 kts | 116° |
| 2026-04-29 16:41 | 52.22627 | 4.30245 | 2975 ft | 218 kts | 117° |
| 2026-04-29 16:41 | 52.21867 | 4.32333 | 2993 ft | 211 kts | 117° |
| 2026-04-29 16:42 | 52.21140 | 4.34327 | 2913 ft | 201 kts | 117° |
| 2026-04-29 16:42 | 52.20425 | 4.36281 | 2623 ft | 200 kts | 117° |
| 2026-04-29 16:42 | 52.19720 | 4.38202 | 2325 ft | 200 kts | 117° |
| 2026-04-29 16:42 | 52.19242 | 4.40279 | 2037 ft | 196 kts | 94° |
| 2026-04-29 16:43 | 52.19187 | 4.42465 | 2002 ft | 183 kts | 92° |
| 2026-04-29 16:43 | 52.19128 | 4.44475 | 1987 ft | 178 kts | 92° |
| 2026-04-29 16:43 | 52.19150 | 4.46525 | 2019 ft | 181 kts | 84° |
| 2026-04-29 16:43 | 52.19291 | 4.48554 | 1990 ft | 180 kts | 77° |
| 2026-04-29 16:44 | 52.19877 | 4.50353 | 1997 ft | 182 kts | 56° |
| 2026-04-29 16:44 | 52.20622 | 4.52053 | 2001 ft | 184 kts | 61° |
| 2026-04-29 16:44 | 52.21256 | 4.53866 | 2001 ft | 184 kts | 62° |
| 2026-04-29 16:44 | 52.21921 | 4.55584 | 1987 ft | 170 kts | 60° |
| 2026-04-29 16:45 | 52.22525 | 4.57092 | 2012 ft | 148 kts | 62° |
| 2026-04-29 16:45 | 52.23049 | 4.58484 | 2008 ft | 142 kts | 62° |
| 2026-04-29 16:45 | 52.23579 | 4.59863 | 2010 ft | 142 kts | 60° |
| 2026-04-29 16:45 | 52.24110 | 4.61226 | 1807 ft | 143 kts | 61° |
| 2026-04-29 16:46 | 52.24632 | 4.62583 | 1607 ft | 140 kts | 61° |
| 2026-04-29 16:46 | 52.25147 | 4.63926 | 1422 ft | 139 kts | 62° |
| 2026-04-29 16:46 | 52.25670 | 4.65280 | 1248 ft | 140 kts | 60° |
| 2026-04-29 16:46 | 52.26154 | 4.66535 | 1060 ft | 122 kts | 61° |
| 2026-04-29 16:47 | 52.26585 | 4.67658 | 874 ft | 111 kts | 61° |
| 2026-04-29 16:47 | 52.26992 | 4.68721 | 754 ft | 113 kts | 61° |
| 2026-04-29 16:47 | 52.27409 | 4.69795 | 594 ft | 112 kts | 60° |
| 2026-04-29 16:47 | 52.27818 | 4.70865 | 428 ft | 111 kts | 60° |
| 2026-04-29 16:48 | 52.28216 | 4.71906 | 308 ft | 109 kts | 60° |
| 2026-04-29 16:48 | 52.28623 | 4.72965 | 147 ft | 113 kts | 60° |
| 2026-04-29 16:48 | 52.29046 | 4.74070 | 11 ft | 113 kts | 59° |
| 2026-04-29 16:48 | 52.29404 | 4.75003 | -3 ft | 80 kts | 58° |
| 2026-04-29 16:49 | 52.29609 | 4.75539 | -3 ft | 30 kts | 58° |
| 2026-04-29 16:49 | 52.29734 | 4.75764 | -4 ft | 26 kts | 32° |
| 2026-04-29 16:49 | 52.29886 | 4.75896 | -3 ft | 24 kts | 27° |
| 2026-04-29 16:49 | 52.30013 | 4.76040 | -2 ft | 21 kts | 58° |
| 2026-04-29 16:50 | 52.30090 | 4.76242 | -2 ft | 21 kts | 58° |
| 2026-04-29 16:50 | 52.30165 | 4.76443 | -2 ft | 21 kts | 59° |
| 2026-04-29 16:50 | 52.30244 | 4.76649 | -2 ft | 22 kts | 58° |
| 2026-04-29 16:50 | 52.30326 | 4.76857 | -2 ft | 22 kts | 57° |
| 2026-04-29 16:51 | 52.30408 | 4.77073 | -3 ft | 23 kts | 58° |
| 2026-04-29 16:51 | 52.30494 | 4.77291 | -2 ft | 23 kts | 58° |
| 2026-04-29 16:51 | 52.30568 | 4.77316 | -2 ft | 10 kts | 327° |
| 2026-04-29 16:51 | 52.30621 | 4.77261 | -2 ft | 8 kts | 327° |
| 2026-04-29 16:52 | 52.30646 | 4.77199 | -2 ft | 5 kts | 279° |
| 2026-04-29 16:52 | 52.30664 | 4.77156 | -2 ft | 4 kts | 335° |
| 2026-04-29 16:52 | 52.30690 | 4.77153 | -2 ft | 4 kts | 3° |
| 2026-04-29 16:52 | 52.30707 | 4.77155 | -2 ft | 0 kts | 4° |